Time;durP1;ratioP1;P1;durP2;ratioP2;P2;SDS_P1;SDS_P2;PMS_P1;PMS_P2;Temp;Humidity;BMP_temperature;BMP_pressure;BME280_temperature;BME280_humidity;BME280_pressure;Samples;Min_cycle;Max_cycle;Signal;HPM_P1;HPM_P2
2021/04/02 00:00:21;;;;;;;13.18;6.45;;;14.10;99.90;;;;;;5051250;28;20167;-50
2021/04/02 00:02:47;;;;;;;;;;;14.10;99.90;;;;;;4984920;28;20045;-51
2021/04/02 00:05:15;;;;;;;13.23;5.63;;;14.20;99.90;;;;;;5049907;28;19916;-53
2021/04/02 00:07:42;;;;;;;9.25;5.55;;;14.20;99.90;;;;;;5050903;28;20039;-50
2021/04/02 00:10:17;;;;;;;9.57;5.53;;;14.20;99.90;;;;;;5050738;28;20036;-49
2021/04/02 00:12:43;;;;;;;10.27;6.13;;;14.10;99.90;;;;;;5072467;28;20112;-50
2021/04/02 00:15:14;;;;;;;10.85;6.00;;;14.20;99.90;;;;;;5073482;28;20058;-51
2021/04/02 00:17:39;;;;;;;11.20;5.65;;;14.20;99.90;;;;;;5055212;28;20132;-48
2021/04/02 00:20:08;;;;;;;8.38;5.15;;;14.30;99.90;;;;;;5073031;28;20109;-50
2021/04/02 00:22:34;;;;;;;10.20;6.05;;;14.30;99.90;;;;;;5053547;28;20044;-52
2021/04/02 00:25:00;;;;;;;10.63;5.93;;;14.40;99.90;;;;;;5054745;28;20082;-51
2021/04/02 00:27:26;;;;;;;9.60;5.47;;;14.40;99.90;;;;;;5021662;28;20044;-51
2021/04/02 00:29:51;;;;;;;9.35;5.80;;;14.40;99.90;;;;;;5073205;28;20059;-52
2021/04/02 00:32:17;;;;;;;12.43;6.20;;;14.40;99.90;;;;;;5073199;28;20024;-49
2021/04/02 00:34:43;;;;;;;9.63;6.60;;;14.40;99.90;;;;;;5073352;28;20036;-51
2021/04/02 00:37:09;;;;;;;9.13;5.88;;;14.50;99.90;;;;;;5073228;28;20025;-50
2021/04/02 00:39:34;;;;;;;9.80;6.45;;;14.50;99.90;;;;;;5073460;28;20025;-52
2021/04/02 00:42:00;;;;;;;11.93;5.95;;;14.60;99.90;;;;;;5073432;28;20032;-50
2021/04/02 00:44:28;;;;;;;15.95;8.27;;;14.60;99.90;;;;;;5037174;28;20124;-50
2021/04/02 00:46:54;;;;;;;11.90;6.93;;;14.60;99.90;;;;;;5073358;28;20024;-51
2021/04/02 00:49:19;;;;;;;17.33;9.40;;;14.60;99.90;;;;;;5054629;28;20047;-54
2021/04/02 00:51:45;;;;;;;14.43;8.30;;;14.60;99.90;;;;;;5072954;28;20060;-50
2021/04/02 00:54:11;;;;;;;13.35;8.10;;;14.60;99.90;;;;;;5073321;28;20059;-49
2021/04/02 00:56:37;;;;;;;12.68;7.63;;;14.60;99.90;;;;;;5054575;28;20036;-50
2021/04/02 00:59:04;;;;;;;8.68;6.68;;;14.70;99.90;;;;;;5072898;28;20032;-51
2021/04/02 01:01:30;;;;;;;10.25;6.47;;;14.60;99.90;;;;;;5073350;28;20024;-51
2021/04/02 01:03:56;;;;;;;14.95;7.18;;;14.70;99.90;;;;;;5073454;28;20028;-51
2021/04/02 01:06:27;;;;;;;11.38;7.03;;;14.70;99.90;;;;;;5072824;28;20035;-48
2021/04/02 01:08:53;;;;;;;10.63;6.68;;;14.70;99.90;;;;;;5073239;28;20444;-49
2021/04/02 01:11:21;;;;;;;12.32;6.65;;;14.70;99.90;;;;;;5071518;28;20044;-52
2021/04/02 01:13:50;;;;;;;12.02;6.75;;;14.70;99.90;;;;;;5072683;28;20081;-50
2021/04/02 01:16:16;;;;;;;8.98;6.13;;;14.70;99.90;;;;;;5073096;28;20037;-53
2021/04/02 01:18:59;;;;;;;11.93;6.40;;;14.70;99.90;;;;;;5072817;28;20036;-50
2021/04/02 01:21:51;;;;;;;11.35;6.60;;;14.70;99.90;;;;;;5073022;28;20025;-51
2021/04/02 01:24:23;;;;;;;8.88;5.72;;;14.70;99.90;;;;;;5072965;28;20032;-49
2021/04/02 01:27:07;;;;;;;9.93;6.47;;;14.70;99.90;;;;;;5072668;28;20032;-52
2021/04/02 01:29:44;;;;;;;12.30;6.93;;;14.70;99.90;;;;;;5072856;28;20035;-53
2021/04/02 01:32:18;;;;;;;12.63;6.68;;;14.70;99.90;;;;;;5072974;28;20351;-49
2021/04/02 01:34:48;;;;;;;10.63;6.47;;;14.80;99.90;;;;;;5072512;28;20033;-51
2021/04/02 01:37:27;;;;;;;10.70;6.38;;;14.70;99.90;;;;;;5073013;28;20440;-48
2021/04/02 01:39:55;;;;;;;10.63;6.43;;;14.80;99.90;;;;;;5072764;28;20050;-49
2021/04/02 01:42:22;;;;;;;9.68;6.53;;;14.90;99.90;;;;;;5072687;28;20526;-49
2021/04/02 01:44:50;;;;;;;11.25;6.57;;;14.90;99.90;;;;;;5073365;28;20040;-52
2021/04/02 01:47:19;;;;;;;12.95;7.55;;;14.90;99.90;;;;;;5076247;28;20106;-51
2021/04/02 01:49:46;;;;;;;8.35;6.05;;;14.90;99.90;;;;;;5075840;28;20030;-48
2021/04/02 01:52:12;;;;;;;8.82;6.05;;;14.80;99.90;;;;;;5076217;28;20024;-50
2021/04/02 01:54:39;;;;;;;9.95;6.25;;;14.80;99.90;;;;;;5076195;28;20469;-50
2021/04/02 01:57:07;;;;;;;10.18;6.07;;;14.80;99.90;;;;;;5075957;28;20064;-51
2021/04/02 01:59:35;;;;;;;9.55;5.85;;;14.80;99.90;;;;;;5075985;28;20162;-51
2021/04/02 02:02:02;;;;;;;11.00;6.50;;;14.80;99.90;;;;;;5075885;28;20037;-49
2021/04/02 02:04:31;;;;;;;8.43;5.95;;;14.90;99.90;;;;;;5056914;28;20043;-50
2021/04/02 02:06:59;;;;;;;10.13;6.15;;;14.80;99.90;;;;;;5075755;28;20040;-50
2021/04/02 02:09:32;;;;;;;11.15;6.57;;;14.80;99.90;;;;;;5075771;28;20037;-50
2021/04/02 02:12:02;;;;;;;9.82;6.75;;;14.80;99.90;;;;;;5051820;28;20049;-50
2021/04/02 02:14:32;;;;;;;8.95;5.45;;;14.80;99.90;;;;;;5053511;28;20056;-48
2021/04/02 02:17:02;;;;;;;11.95;6.30;;;14.80;99.90;;;;;;5053095;28;20593;-48
2021/04/02 02:19:32;;;;;;;9.13;5.32;;;14.80;99.90;;;;;;5019589;28;20107;-52
2021/04/02 02:22:04;;;;;;;11.70;8.13;;;14.40;99.90;;;;;;5053028;28;20116;-50
2021/04/02 02:24:30;;;;;;;17.92;10.93;;;;;;;;;;5003660;28;20040;-48
2021/04/02 02:26:57;;;;;;;15.35;9.50;;;13.50;99.90;;;;;;5052773;28;20037;-52
2021/04/02 02:29:23;;;;;;;15.90;10.18;;;;;;;;;;5053074;28;20032;-48
2021/04/02 02:31:51;;;;;;;20.80;12.02;;;13.30;99.90;;;;;;5052981;28;20448;-50
2021/04/02 02:34:17;;;;;;;16.08;11.10;;;13.20;99.90;;;;;;5052915;28;20530;-48
2021/04/02 02:36:44;;;;;;;20.30;11.48;;;13.20;99.90;;;;;;5052875;28;20464;-50
2021/04/02 02:39:13;;;;;;;20.02;12.32;;;13.40;99.90;;;;;;5053101;28;20369;-49
2021/04/02 02:41:39;;;;;;;21.52;11.90;;;13.50;99.90;;;;;;5052612;28;20456;-50
2021/04/02 02:44:05;;;;;;;19.92;11.07;;;13.50;99.90;;;;;;5074276;28;20039;-48
2021/04/02 02:46:32;;;;;;;18.55;11.60;;;13.50;99.90;;;;;;5075346;28;20032;-50
2021/04/02 02:49:09;;;;;;;19.20;11.77;;;13.70;99.90;;;;;;5074652;28;20408;-51
2021/04/02 02:51:36;;;;;;;19.50;12.13;;;13.70;99.90;;;;;;5074870;28;20033;-51
2021/04/02 02:54:05;;;;;;;22.63;11.63;;;14.00;99.90;;;;;;5074833;28;20029;-48
2021/04/02 02:56:33;;;;;;;22.25;12.02;;;14.10;99.90;;;;;;5073791;28;20052;-49
2021/04/02 02:59:01;;;;;;;14.30;9.88;;;14.20;99.90;;;;;;5074789;28;20020;-52
2021/04/02 03:01:31;;;;;;;19.90;10.93;;;14.10;99.90;;;;;;5056112;28;20406;-49
2021/04/02 03:03:57;;;;;;;18.80;10.57;;;14.20;99.90;;;;;;5074456;28;20035;-50
2021/04/02 03:06:24;;;;;;;17.65;9.80;;;;;;;;;;5074735;28;20024;-52
2021/04/02 03:08:53;;;;;;;14.90;9.07;;;;;;;;;;5074532;28;20028;-49
2021/04/02 03:11:21;;;;;;;16.17;9.55;;;14.10;99.90;;;;;;5073228;28;20127;-49
2021/04/02 03:13:50;;;;;;;13.48;8.38;;;14.00;99.90;;;;;;5074055;28;20093;-52
2021/04/02 03:16:18;;;;;;;16.13;9.18;;;13.90;99.90;;;;;;5074484;28;20375;-49
2021/04/02 03:18:48;;;;;;;15.07;8.48;;;13.90;99.90;;;;;;5074122;28;20056;-49
2021/04/02 03:21:15;;;;;;;16.73;8.65;;;13.90;99.90;;;;;;5074068;28;20151;-48
2021/04/02 03:23:43;;;;;;;16.23;9.07;;;13.90;99.90;;;;;;5055695;28;20071;-52
2021/04/02 03:26:09;;;;;;;14.93;8.00;;;14.00;99.90;;;;;;5070258;28;20376;-48
2021/04/02 03:28:38;;;;;;;14.15;8.55;;;14.10;99.90;;;;;;5054373;28;20016;-48
2021/04/02 03:31:04;;;;;;;13.20;7.45;;;14.10;99.90;;;;;;5053994;28;20036;-50
2021/04/02 03:33:34;;;;;;;12.60;8.13;;;14.10;99.90;;;;;;5064096;28;20033;-48
2021/04/02 03:36:04;;;;;;;11.43;7.47;;;14.20;99.90;;;;;;5074006;28;20032;-50
2021/04/02 03:38:34;;;;;;;10.65;7.25;;;14.20;99.90;;;;;;5073854;28;20059;-48
2021/04/02 03:41:03;;;;;;;13.07;7.40;;;14.20;99.90;;;;;;5073572;28;20387;-50
2021/04/02 03:43:30;;;;;;;14.85;7.28;;;14.20;99.90;;;;;;5071987;28;20024;-48
2021/04/02 03:45:58;;;;;;;12.40;7.50;;;14.20;99.90;;;;;;5073744;28;20505;-48
2021/04/02 03:48:25;;;;;;;11.70;7.00;;;14.20;99.90;;;;;;5073495;28;20036;-48
2021/04/02 03:50:57;;;;;;;10.48;6.20;;;14.10;99.90;;;;;;5054979;28;20360;-50
2021/04/02 03:53:32;;;;;;;11.35;5.88;;;14.10;99.90;;;;;;5072286;28;20028;-49
2021/04/02 03:56:01;;;;;;;9.40;5.40;;;14.30;99.90;;;;;;5069976;28;20039;-50
2021/04/02 03:58:28;;;;;;;11.65;6.93;;;14.40;99.90;;;;;;5072914;28;20033;-51
2021/04/02 04:01:00;;;;;;;11.30;6.07;;;14.40;99.90;;;;;;5073541;28;20032;-50
2021/04/02 04:03:26;;;;;;;9.75;6.68;;;14.60;99.90;;;;;;5072027;28;20073;-49
2021/04/02 04:05:56;;;;;;;13.50;6.05;;;14.60;99.90;;;;;;5073584;28;20548;-51
2021/04/02 04:08:25;;;;;;;11.75;6.93;;;14.70;99.90;;;;;;5070910;28;20028;-49
2021/04/02 04:10:52;;;;;;;8.43;5.80;;;14.70;99.90;;;;;;5045217;28;20043;-52
2021/04/02 04:13:19;;;;;;;10.90;6.15;;;;;;;;;;5064116;28;20056;-45
2021/04/02 04:15:46;;;;;;;11.10;6.22;;;;;;;;;;5062683;28;20384;-44
2021/04/02 04:18:13;;;;;;;8.02;4.50;;;14.90;99.90;;;;;;5062378;28;20175;-54
2021/04/02 04:20:41;;;;;;;8.60;4.68;;;;;;;;;;5063616;28;20403;-51
2021/04/02 04:23:08;;;;;;;6.18;3.88;;;;;;;;;;5063555;28;20028;-48
2021/04/02 04:25:34;;;;;;;5.55;3.97;;;12.40;99.90;;;;;;5044433;28;20028;-48
2021/04/02 04:28:02;;;;;;;12.52;5.13;;;14.00;99.90;;;;;;5060536;28;20056;-48
2021/04/02 04:30:29;;;;;;;7.40;4.15;;;14.20;99.90;;;;;;5058080;28;20028;-51
2021/04/02 04:32:57;;;;;;;10.07;4.43;;;14.20;99.90;;;;;;5053689;28;20047;-45
2021/04/02 04:35:24;;;;;;;8.88;4.90;;;14.00;99.90;;;;;;5072888;28;20031;-45
2021/04/02 04:37:51;;;;;;;7.15;4.40;;;14.10;99.90;;;;;;5073272;28;20108;-47
2021/04/02 04:40:22;;;;;;;11.45;5.10;;;14.10;99.90;;;;;;5072937;28;20040;-48
2021/04/02 04:42:48;;;;;;;9.70;5.18;;;14.30;99.90;;;;;;5054524;28;20032;-49
2021/04/02 04:45:19;;;;;;;7.25;4.80;;;14.40;99.90;;;;;;5054377;28;20428;-48
2021/04/02 04:47:45;;;;;;;12.50;6.30;;;;;;;;;;5073118;28;20396;-46
2021/04/02 04:50:13;;;;;;;8.55;5.75;;;14.40;99.90;;;;;;5073365;28;20039;-50
2021/04/02 04:52:46;;;;;;;6.50;4.20;;;14.30;99.90;;;;;;5073326;28;20032;-52
2021/04/02 04:55:13;;;;;;;6.70;3.97;;;14.30;99.90;;;;;;5072851;28;20028;-47
2021/04/02 04:57:41;;;;;;;7.97;4.85;;;14.50;99.90;;;;;;5037981;28;20066;-49
2021/04/02 05:00:08;;;;;;;5.93;4.18;;;14.50;99.90;;;;;;5073160;28;20029;-52
2021/04/02 05:02:35;;;;;;;7.05;3.92;;;14.60;99.90;;;;;;5037501;28;20032;-51
2021/04/02 05:05:03;;;;;;;6.25;3.90;;;14.50;99.90;;;;;;5072698;28;20032;-50
2021/04/02 05:07:31;;;;;;;6.85;3.80;;;14.50;99.90;;;;;;5037545;28;20356;-49
2021/04/02 05:09:59;;;;;;;6.35;3.55;;;14.60;99.90;;;;;;5072649;28;20456;-54
2021/04/02 05:12:26;;;;;;;4.97;2.85;;;14.80;99.90;;;;;;5073035;28;20033;-47
2021/04/02 05:14:52;;;;;;;4.50;2.72;;;14.80;99.90;;;;;;5073156;28;20384;-51
2021/04/02 05:17:21;;;;;;;5.20;3.08;;;15.00;99.90;;;;;;5037380;28;20036;-50
2021/04/02 05:19:48;;;;;;;4.47;2.92;;;15.10;99.90;;;;;;5075236;28;20131;-50
2021/04/02 05:22:14;;;;;;;6.00;3.10;;;15.20;99.90;;;;;;5076740;28;20028;-48
2021/04/02 05:24:40;;;;;;;4.85;3.20;;;15.30;99.90;;;;;;5057866;28;20047;-48
2021/04/02 05:27:06;;;;;;;6.03;3.88;;;15.50;99.90;;;;;;5057338;28;20233;-48
2021/04/02 05:29:32;;;;;;;6.20;4.25;;;15.50;99.90;;;;;;5024398;28;20039;-47
2021/04/02 05:31:59;;;;;;;5.35;3.28;;;15.60;99.90;;;;;;5057699;28;20028;-50
2021/04/02 05:34:25;;;;;;;5.45;3.88;;;15.60;99.90;;;;;;5076621;28;20024;-47
2021/04/02 05:36:51;;;;;;;5.15;3.67;;;15.50;99.90;;;;;;5076484;28;20028;-49
2021/04/02 05:39:17;;;;;;;5.25;4.03;;;15.60;99.90;;;;;;5057471;28;20435;-51
2021/04/02 05:41:45;;;;;;;5.35;3.45;;;15.30;99.90;;;;;;5076569;28;20024;-50
2021/04/02 05:44:14;;;;;;;6.00;3.42;;;15.30;99.90;;;;;;5076435;28;20035;-48
2021/04/02 05:46:43;;;;;;;4.88;3.67;;;15.20;99.90;;;;;;5076176;28;20020;-50
2021/04/02 05:49:10;;;;;;;5.85;4.25;;;15.30;99.90;;;;;;5076366;28;20028;-49
2021/04/02 05:51:37;;;;;;;6.65;3.88;;;15.40;99.90;;;;;;5076454;28;20376;-49
2021/04/02 05:54:06;;;;;;;6.03;3.97;;;15.30;99.90;;;;;;5076002;28;20031;-49
2021/04/02 05:56:32;;;;;;;6.68;4.43;;;15.10;99.90;;;;;;5076404;28;20031;-50
2021/04/02 05:58:59;;;;;;;7.43;5.07;;;14.90;99.90;;;;;;5024425;28;20044;-52
2021/04/02 06:01:25;;;;;;;8.13;4.88;;;14.90;99.90;;;;;;5075878;28;20025;-52
2021/04/02 06:03:51;;;;;;;7.15;4.80;;;15.00;99.90;;;;;;5076194;28;20028;-48
2021/04/02 06:06:17;;;;;;;7.68;5.10;;;15.10;99.90;;;;;;5075834;28;20029;-48
2021/04/02 06:08:45;;;;;;;15.65;8.07;;;15.20;99.90;;;;;;5075899;28;20020;-47
2021/04/02 06:11:12;;;;;;;17.73;8.43;;;15.30;99.90;;;;;;5073861;28;20044;-50
2021/04/02 06:13:38;;;;;;;8.43;5.03;;;15.40;99.90;;;;;;5076356;28;20406;-50
2021/04/02 06:16:04;;;;;;;8.77;5.07;;;15.30;99.90;;;;;;5075750;28;20035;-49
2021/04/02 06:18:35;;;;;;;9.32;5.65;;;15.30;99.90;;;;;;5023649;28;20101;-48
2021/04/02 06:21:01;;;;;;;8.63;4.85;;;15.40;99.90;;;;;;5075941;28;20025;-52
2021/04/02 06:23:28;;;;;;;9.98;4.57;;;15.60;99.90;;;;;;5075452;28;20031;-49
2021/04/02 06:25:56;;;;;;;7.22;4.45;;;15.70;99.90;;;;;;5075643;28;20028;-48
2021/04/02 06:28:22;;;;;;;9.02;4.85;;;15.80;99.90;;;;;;5075643;28;20036;-47
2021/04/02 06:31:06;;;;;;;6.38;4.45;;;15.90;99.90;;;;;;5055798;28;20117;-51
2021/04/02 06:33:38;;;;;;;7.40;4.03;;;16.00;99.90;;;;;;5056928;28;20121;-48
2021/04/02 06:36:11;;;;;;;;;;;16.00;99.90;;;;;;5076008;28;20165;-50
2021/04/02 06:38:43;;;;;;;9.48;5.25;;;16.10;99.90;;;;;;5056444;28;20382;-51
2021/04/02 06:41:09;;;;;;;;;;;16.20;99.90;;;;;;5073802;28;20032;-50
2021/04/02 06:43:41;;;;;;;7.35;4.70;;;16.30;99.90;;;;;;5075572;28;19904;-48
2021/04/02 06:46:08;;;;;;;19.55;14.05;;;;;;;;;;5075064;28;20389;-50
2021/04/02 06:48:34;;;;;;;10.38;7.10;;;;;;;;;;5075352;28;20081;-50
2021/04/02 06:51:00;;;;;;;9.50;5.50;;;;;;;;;;5073756;28;20052;-51
2021/04/02 06:53:26;;;;;;;8.02;4.97;;;;;;;;;;5074755;28;20033;-49
2021/04/02 06:55:53;;;;;;;8.27;5.50;;;;;;;;;;5075064;28;20483;-49
2021/04/02 06:58:22;;;;;;;8.63;5.20;;;17.20;99.90;;;;;;5075003;28;20082;-49
2021/04/02 07:00:51;;;;;;;9.88;5.53;;;17.30;99.90;;;;;;5055987;28;20128;-48
2021/04/02 07:03:18;;;;;;;10.55;6.28;;;17.50;99.90;;;;;;5074998;28;20028;-50
2021/04/02 07:05:45;;;;;;;11.00;6.32;;;17.60;99.90;;;;;;5072821;28;20064;-48
2021/04/02 07:08:17;;;;;;;8.95;5.38;;;17.40;99.90;;;;;;5074366;28;20115;-50
2021/04/02 07:10:45;;;;;;;7.70;5.28;;;17.50;99.90;;;;;;5074918;28;20490;-51
2021/04/02 07:13:12;;;;;;;8.68;4.82;;;17.40;99.90;;;;;;5074676;28;20487;-48
2021/04/02 07:15:41;;;;;;;7.57;4.93;;;17.30;99.90;;;;;;5074534;28;20090;-52
2021/04/02 07:18:09;;;;;;;7.80;5.10;;;17.30;99.90;;;;;;5074517;28;20047;-52
2021/04/02 07:20:35;;;;;;;9.32;4.82;;;17.20;99.90;;;;;;5074740;28;20064;-46
2021/04/02 07:23:01;;;;;;;8.30;5.00;;;17.30;99.90;;;;;;5074228;28;20020;-49
2021/04/02 07:25:29;;;;;;;7.15;4.97;;;17.30;99.90;;;;;;5074427;28;20487;-49
2021/04/02 07:27:56;;;;;;;10.02;5.03;;;17.20;99.90;;;;;;5075004;28;20028;-47
2021/04/02 07:30:25;;;;;;;8.68;5.25;;;17.30;99.90;;;;;;5072580;28;20036;-49
2021/04/02 07:32:52;;;;;;;11.05;5.93;;;17.10;99.90;;;;;;5074495;28;20111;-46
2021/04/02 07:35:22;;;;;;;9.45;6.20;;;17.10;99.90;;;;;;5074338;28;20111;-50
2021/04/02 07:37:58;;;;;;;10.82;5.72;;;17.10;99.90;;;;;;5055197;28;20047;-49
2021/04/02 07:40:29;;;;;;;9.93;6.50;;;17.10;99.90;;;;;;5074179;28;20486;-48
2021/04/02 07:42:56;;;;;;;11.20;6.43;;;17.30;99.90;;;;;;5072096;28;20123;-49
2021/04/02 07:45:35;;;;;;;7.47;5.60;;;17.40;99.90;;;;;;5055027;28;20144;-50
2021/04/02 07:48:29;;;;;;;10.70;5.97;;;17.40;99.90;;;;;;5074072;28;20040;-50
2021/04/02 07:51:01;;;;;;;9.95;5.78;;;17.10;99.90;;;;;;5011926;28;20042;-50
2021/04/02 07:53:27;;;;;;;10.27;5.70;;;17.20;99.90;;;;;;5011671;28;20521;-47
2021/04/02 07:55:55;;;;;;;9.43;5.47;;;;;;;;;;5012059;28;20033;-50
2021/04/02 07:58:25;;;;;;;9.85;6.18;;;;;;;;;;5011900;28;20026;-48
2021/04/02 08:00:56;;;;;;;6.82;5.03;;;;;;;;;;5011684;28;20038;-49
2021/04/02 08:03:23;;;;;;;7.25;5.20;;;;;;;;;;5012005;28;20128;-52
2021/04/02 08:05:52;;;;;;;7.85;5.38;;;;;;;;;;5011721;28;20075;-49
2021/04/02 08:08:19;;;;;;;9.30;6.15;;;;;;;;;;5011476;28;20042;-49
2021/04/02 08:11:03;;;;;;;8.45;5.47;;;;;;;;;;5011708;28;20033;-51
2021/04/02 08:13:29;;;;;;;10.88;5.00;;;;;;;;;;5011647;28;20038;-50
2021/04/02 08:15:58;;;;;;;10.30;4.50;;;;;;;;;;5011454;28;20057;-49
2021/04/02 08:18:26;;;;;;;10.25;5.65;;;;;;;;;;5011283;28;20050;-49
2021/04/02 08:20:55;;;;;;;11.23;5.57;;;;;;;;;;5011003;28;20575;-47
2021/04/02 08:23:26;;;;;;;7.75;5.03;;;19.00;99.90;;;;;;4961423;28;20421;-49
2021/04/02 08:25:55;;;;;;;7.95;5.43;;;;;;;;;;5010859;28;20109;-48
2021/04/02 08:28:25;;;;;;;9.10;5.57;;;;;;;;;;5069334;28;20044;-48
2021/04/02 08:30:53;;;;;;;9.98;5.07;;;;;;;;;;5072172;28;20036;-48
2021/04/02 08:33:19;;;;;;;9.07;4.88;;;;;;;;;;5072726;28;20036;-48
2021/04/02 08:35:45;;;;;;;7.47;4.32;;;;;;;;;;5054258;28;20093;-48
2021/04/02 08:38:11;;;;;;;7.28;4.13;;;;;;;;;;5072451;28;20025;-50
2021/04/02 08:40:38;;;;;;;8.48;4.57;;;;;;;;;;5072559;28;20032;-49
2021/04/02 08:43:05;;;;;;;10.60;5.72;;;;;;;;;;5072777;28;20024;-50
2021/04/02 08:45:33;;;;;;;9.25;5.80;;;;;;;;;;5072104;28;20056;-48
2021/04/02 08:47:59;;;;;;;15.27;7.03;;;;;;;;;;5030267;28;20033;-50
2021/04/02 08:50:25;;;;;;;8.80;5.75;;;;;;;;;;4997218;28;20103;-50
2021/04/02 08:52:51;;;;;;;11.20;6.00;;;;;;;;;;5029941;28;20038;-50
2021/04/02 08:55:17;;;;;;;10.45;5.75;;;;;;;;;;5033433;28;20033;-51
2021/04/02 08:57:46;;;;;;;9.82;5.03;;;;;;;;;;5034504;28;20069;-47
2021/04/02 09:00:12;;;;;;;10.85;5.13;;;;;;;;;;5000796;28;20042;-48
2021/04/02 09:02:38;;;;;;;6.47;4.53;;;;;;;;;;5017816;28;20037;-48
2021/04/02 09:05:10;;;;;;;6.68;4.32;;;;;;;;;;5034364;28;20030;-48
2021/04/02 09:07:40;;;;;;;6.97;4.68;;;18.90;99.90;;;;;;5017404;28;20040;-48
2021/04/02 09:10:15;;;;;;;5.93;4.20;;;18.80;99.90;;;;;;5034164;28;20040;-48
2021/04/02 09:12:48;;;;;;;6.28;4.15;;;18.90;99.90;;;;;;4994719;28;20502;-50
2021/04/02 09:15:29;;;;;;;6.15;4.05;;;18.90;99.90;;;;;;4994242;28;20065;-47
2021/04/02 09:18:23;;;;;;;8.35;4.88;;;18.80;99.90;;;;;;4982002;28;20038;-47
2021/04/02 09:20:49;;;;;;;8.63;5.28;;;19.10;99.90;;;;;;5005059;28;20539;-47
2021/04/02 09:23:15;;;;;;;7.72;5.05;;;;;;;;;;5053698;28;20115;-49
2021/04/02 09:25:45;;;;;;;9.70;4.68;;;;;;;;;;5053781;28;20048;-48
2021/04/02 09:28:11;;;;;;;8.52;5.50;;;;;;;;;;5053310;28;20051;-46
2021/04/02 09:30:37;;;;;;;8.25;5.47;;;;;;;;;;5053542;28;20082;-49
2021/04/02 09:33:03;;;;;;;7.78;4.82;;;;;;;;;;5053929;28;20068;-46
2021/04/02 09:35:29;;;;;;;9.77;5.50;;;;;;;;;;5003675;28;20128;-48
2021/04/02 09:37:55;;;;;;;9.10;5.57;;;19.90;99.90;;;;;;5004201;28;20431;-51
2021/04/02 09:40:27;;;;;;;9.18;5.47;;;20.10;99.90;;;;;;5036775;28;20040;-51
2021/04/02 09:42:53;;;;;;;10.65;6.10;;;;;;;;;;5056883;28;20519;-47
2021/04/02 09:45:20;;;;;;;8.75;6.38;;;20.60;99.90;;;;;;5075618;28;20032;-51
2021/04/02 09:47:48;;;;;;;9.43;6.30;;;20.80;99.90;;;;;;5075840;28;20115;-48
2021/04/02 09:50:16;;;;;;;6.68;4.85;;;21.00;99.90;;;;;;5075395;28;20079;-50
2021/04/02 09:52:43;;;;;;;9.63;5.47;;;20.90;99.90;;;;;;5075799;28;20029;-49
2021/04/02 09:55:11;;;;;;;8.02;5.35;;;21.10;99.90;;;;;;5076059;28;20068;-47
2021/04/02 09:57:37;;;;;;;5.63;4.28;;;21.20;99.90;;;;;;5075407;28;20033;-47
2021/04/02 10:00:06;;;;;;;6.40;4.60;;;21.30;99.90;;;;;;5075418;28;20086;-51
2021/04/02 10:02:34;;;;;;;5.68;3.40;;;;;;;;;;5040084;28;20037;-51
2021/04/02 10:05:00;;;;;;;4.30;3.70;;;21.30;99.90;;;;;;5074768;28;20044;-50
2021/04/02 10:07:26;;;;;;;8.77;4.75;;;21.00;99.90;;;;;;5075001;28;20495;-51
2021/04/02 10:09:51;;;;;;;7.57;4.38;;;21.00;99.90;;;;;;5075411;28;20078;-48
2021/04/02 10:12:17;;;;;;;6.18;4.38;;;21.00;99.90;;;;;;5075767;28;20032;-49
2021/04/02 10:14:43;;;;;;;6.65;4.38;;;20.80;99.90;;;;;;5075258;28;20039;-48
2021/04/02 10:17:10;;;;;;;7.10;4.10;;;20.90;99.90;;;;;;5040296;28;20050;-49
2021/04/02 10:19:37;;;;;;;4.13;3.17;;;20.90;99.90;;;;;;5057053;28;20089;-50
2021/04/02 10:22:04;;;;;;;4.10;3.22;;;20.70;99.90;;;;;;5039999;28;20045;-48
2021/04/02 10:24:30;;;;;;;5.05;3.10;;;20.80;99.90;;;;;;5003573;28;20462;-50
2021/04/02 10:26:58;;;;;;;6.40;3.63;;;21.00;99.90;;;;;;5037060;28;20519;-49
2021/04/02 10:29:24;;;;;;;5.63;3.30;;;21.00;99.90;;;;;;5063427;28;20040;-48
2021/04/02 10:31:50;;;;;;;5.90;3.47;;;21.00;99.90;;;;;;5073045;28;20033;-48
2021/04/02 10:34:16;;;;;;;5.13;3.45;;;21.00;99.90;;;;;;5073443;28;20024;-49
2021/04/02 10:36:42;;;;;;;4.88;3.17;;;21.20;99.90;;;;;;5075112;28;20032;-47
2021/04/02 10:39:08;;;;;;;5.68;3.28;;;21.40;99.90;;;;;;5075406;28;20079;-48
2021/04/02 10:41:34;;;;;;;8.25;4.15;;;21.40;99.90;;;;;;5056561;28;20040;-53
2021/04/02 10:44:00;;;;;;;6.43;3.67;;;21.40;99.90;;;;;;5075111;28;20033;-48
2021/04/02 10:46:25;;;;;;;5.70;3.42;;;21.40;99.90;;;;;;5075211;28;20028;-51
2021/04/02 10:48:51;;;;;;;6.97;3.60;;;21.40;99.90;;;;;;5075267;28;20437;-48
2021/04/02 10:51:17;;;;;;;5.68;3.45;;;;;;;;;;5074697;28;20434;-51
2021/04/02 10:53:44;;;;;;;4.68;3.50;;;21.20;99.90;;;;;;5073041;28;20056;-48
2021/04/02 10:56:10;;;;;;;4.53;3.05;;;21.40;99.90;;;;;;5052771;28;20464;-52
2021/04/02 10:58:36;;;;;;;6.65;3.80;;;;;;;;;;5054612;28;20039;-49
2021/04/02 11:01:03;;;;;;;6.30;3.45;;;22.10;99.90;;;;;;5055883;28;20537;-52
2021/04/02 11:03:29;;;;;;;5.93;3.13;;;22.10;99.90;;;;;;5074966;28;20132;-53
2021/04/02 11:05:55;;;;;;;6.43;3.50;;;22.40;99.90;;;;;;5074585;28;20127;-52
2021/04/02 11:08:21;;;;;;;10.30;3.63;;;22.60;99.90;;;;;;5073599;28;20116;-51
2021/04/02 11:10:47;;;;;;;7.70;3.78;;;22.50;99.90;;;;;;5039223;28;20048;-52
2021/04/02 11:13:13;;;;;;;9.10;4.43;;;22.40;99.90;;;;;;5074480;28;20029;-52
2021/04/02 11:15:38;;;;;;;8.63;3.72;;;22.40;99.90;;;;;;5070502;28;20032;-50
2021/04/02 11:18:04;;;;;;;9.95;4.15;;;22.40;99.90;;;;;;5020800;28;20050;-52
2021/04/02 11:20:30;;;;;;;10.07;4.60;;;22.20;99.90;;;;;;5074204;28;20024;-51
2021/04/02 11:22:57;;;;;;;7.93;4.18;;;22.30;99.90;;;;;;5074504;28;20604;-48
2021/04/02 11:25:24;;;;;;;8.13;4.50;;;21.90;99.90;;;;;;5074031;28;20036;-50
2021/04/02 11:27:50;;;;;;;9.02;3.90;;;22.00;99.90;;;;;;5074179;28;20036;-52
2021/04/02 11:30:17;;;;;;;7.85;3.97;;;22.00;99.90;;;;;;5055624;28;20044;-53
2021/04/02 11:32:44;;;;;;;6.10;3.78;;;22.00;99.90;;;;;;5074454;28;20049;-48
2021/04/02 11:35:11;;;;;;;6.90;3.92;;;22.20;99.90;;;;;;5055641;28;20119;-49
2021/04/02 11:37:37;;;;;;;5.20;3.08;;;22.50;99.90;;;;;;5002036;28;20092;-50
2021/04/02 11:40:07;;;;;;;4.15;2.80;;;22.80;99.90;;;;;;5052098;28;20060;-52
2021/04/02 11:42:33;;;;;;;5.47;3.35;;;;;;;;;;5018389;28;20131;-52
2021/04/02 11:44:59;;;;;;;4.53;2.80;;;23.00;99.90;;;;;;5052167;28;20040;-48
2021/04/02 11:47:25;;;;;;;7.78;3.50;;;23.00;98.50;;;;;;5051941;28;20029;-49
2021/04/02 11:49:51;;;;;;;5.97;3.60;;;22.90;98.00;;;;;;5051653;28;20489;-49
2021/04/02 11:52:17;;;;;;;6.22;3.10;;;22.90;98.60;;;;;;5051976;28;20033;-48
2021/04/02 11:54:43;;;;;;;6.85;3.17;;;22.30;98.60;;;;;;4985980;28;20048;-51
2021/04/02 11:57:09;;;;;;;6.97;3.20;;;22.40;98.30;;;;;;5051583;28;20029;-51
2021/04/02 11:59:34;;;;;;;5.65;2.97;;;22.40;98.10;;;;;;5051524;28;20047;-49
2021/04/02 12:02:00;;;;;;;6.32;3.47;;;22.50;99.00;;;;;;5051809;28;20033;-51
2021/04/02 12:04:26;;;;;;;5.40;2.97;;;22.60;99.60;;;;;;5051370;28;20037;-51
2021/04/02 12:06:52;;;;;;;5.97;3.50;;;22.90;97.90;;;;;;5051533;28;20032;-49
2021/04/02 12:09:17;;;;;;;4.22;2.95;;;23.60;99.90;;;;;;5051610;28;20068;-48
2021/04/02 12:11:43;;;;;;;4.10;2.85;;;;;;;;;;5050798;28;20045;-48
2021/04/02 12:14:09;;;;;;;4.57;3.00;;;24.10;99.90;;;;;;5054525;28;20562;-50
2021/04/02 12:16:36;;;;;;;6.20;3.25;;;24.10;95.40;;;;;;5073653;28;20035;-51
2021/04/02 12:19:04;;;;;;;3.25;2.53;;;24.20;94.00;;;;;;5073403;28;20056;-52
2021/04/02 12:21:31;;;;;;;4.32;2.75;;;23.80;93.70;;;;;;5068803;28;20037;-50
2021/04/02 12:23:58;;;;;;;5.05;2.53;;;23.80;93.00;;;;;;5073588;28;20040;-51
2021/04/02 12:26:24;;;;;;;7.03;2.97;;;23.70;93.20;;;;;;5050761;28;20051;-51
2021/04/02 12:28:50;;;;;;;4.80;2.88;;;24.00;93.10;;;;;;5017145;28;20040;-49
2021/04/02 12:31:18;;;;;;;6.20;3.00;;;24.20;92.20;;;;;;5051237;28;20068;-50
2021/04/02 12:33:44;;;;;;;7.15;3.72;;;24.60;90.90;;;;;;5050822;28;20415;-51
2021/04/02 12:36:10;;;;;;;5.70;3.20;;;24.90;90.10;;;;;;5051164;28;20044;-49
2021/04/02 12:38:36;;;;;;;5.82;3.05;;;24.80;89.30;;;;;;5051040;28;20043;-50
2021/04/02 12:41:03;;;;;;;3.45;2.38;;;24.80;89.20;;;;;;5050827;28;20045;-48
2021/04/02 12:43:30;;;;;;;6.57;2.50;;;24.70;83.60;;;;;;5050959;28;20025;-50
2021/04/02 12:45:56;;;;;;;6.15;2.80;;;24.80;84.50;;;;;;5051113;28;20037;-48
2021/04/02 12:48:24;;;;;;;6.30;2.58;;;25.20;85.50;;;;;;5034029;28;20041;-48
2021/04/02 12:50:50;;;;;;;4.03;2.47;;;25.40;83.10;;;;;;5050916;28;20041;-49
2021/04/02 12:53:16;;;;;;;5.35;2.95;;;25.40;79.80;;;;;;5051105;28;20032;-48
2021/04/02 12:55:42;;;;;;;4.00;2.25;;;25.50;77.90;;;;;;5050616;28;20504;-51
2021/04/02 12:58:08;;;;;;;7.15;2.80;;;25.40;78.20;;;;;;5069402;28;20451;-50
2021/04/02 13:00:34;;;;;;;9.00;2.85;;;25.40;78.40;;;;;;5073315;28;20028;-48
2021/04/02 13:03:00;;;;;;;4.00;2.30;;;25.40;77.80;;;;;;5070973;28;20472;-51